createdAt,value
2022-12-14T00:02:12.015Z,99472.84
2022-12-14T00:04:38.882Z,99467.00
2022-12-14T00:07:05.693Z,99472.06
2022-12-14T00:09:32.654Z,99475.84
2022-12-14T00:11:59.499Z,99464.53
2022-12-14T00:14:26.299Z,99461.03
2022-12-14T00:16:53.090Z,99459.09
2022-12-14T00:19:19.964Z,99447.09
2022-12-14T00:21:46.838Z,99441.56
2022-12-14T00:24:13.655Z,99446.41
2022-12-14T00:26:40.476Z,99441.22
2022-12-14T00:29:07.315Z,99445.44
2022-12-14T00:31:34.482Z,99437.91
2022-12-14T00:34:01.657Z,99430.88
2022-12-14T00:36:31.184Z,99413.75
2022-12-14T00:38:58.094Z,99413.06
2022-12-14T00:41:24.933Z,99413.22
2022-12-14T00:43:51.954Z,99418.88
2022-12-14T00:46:18.926Z,99416.00
2022-12-14T00:48:46.516Z,99418.13
2022-12-14T00:51:15.090Z,99416.91
2022-12-14T00:53:44.615Z,99416.09
2022-12-14T00:56:12.315Z,99414.94
2022-12-14T00:58:39.131Z,99415.03
2022-12-14T01:01:13.377Z,99403.09
2022-12-14T01:03:40.627Z,99401.16
2022-12-14T01:06:18.236Z,99392.53
2022-12-14T01:08:45.218Z,99394.00
2022-12-14T01:11:13.526Z,99396.34
2022-12-14T01:13:41.661Z,99394.97
2022-12-14T01:16:14.546Z,99388.56
2022-12-14T01:18:43.428Z,99390.28
2022-12-14T01:21:16.043Z,99391.88
2022-12-14T01:23:44.141Z,99393.38
2022-12-14T01:26:13.597Z,99392.25
2022-12-14T01:28:40.982Z,99389.00
2022-12-14T01:31:18.301Z,99391.41
2022-12-14T01:33:45.458Z,99382.13
2022-12-14T01:36:18.657Z,99382.00
2022-12-14T01:38:46.396Z,99378.97
2022-12-14T01:41:39.242Z,99380.50
2022-12-14T01:44:08.983Z,99381.06
2022-12-14T01:46:41.725Z,99377.63
2022-12-14T01:49:24.097Z,99375.41
2022-12-14T01:52:15.118Z,99368.75
2022-12-14T01:54:49.106Z,99361.47
2022-12-14T01:57:19.402Z,99367.34
2022-12-14T01:59:47.397Z,99363.78
2022-12-14T02:02:16.834Z,99358.88
2022-12-14T02:04:52.328Z,99355.28
2022-12-14T02:07:19.203Z,99359.66
2022-12-14T02:09:47.876Z,99349.41
2022-12-14T02:12:27.462Z,99346.97
2022-12-14T02:14:55.292Z,99355.34
2022-12-14T02:17:22.822Z,99362.81
2022-12-14T02:19:49.708Z,99355.84
2022-12-14T02:23:09.847Z,99348.00
2022-12-14T02:26:22.012Z,99342.28
2022-12-14T02:29:09.884Z,99338.91
2022-12-14T02:32:03.113Z,99352.31
2022-12-14T02:34:33.043Z,99346.06
2022-12-14T02:37:04.473Z,99346.56
2022-12-14T02:40:02.661Z,99340.75
2022-12-14T02:42:56.986Z,99336.44
2022-12-14T02:46:03.233Z,99332.53
2022-12-14T02:48:38.740Z,99322.78
2022-12-14T02:51:46.621Z,99325.34
2022-12-14T02:54:23.826Z,99319.56
2022-12-14T02:57:03.935Z,99312.97
2022-12-14T02:59:33.338Z,99311.16
2022-12-14T03:02:02.992Z,99303.41
2022-12-14T03:04:29.984Z,99301.59
2022-12-14T03:07:05.624Z,99296.38
2022-12-14T03:09:33.066Z,99304.72
2022-12-14T03:12:10.661Z,99304.06
2022-12-14T03:14:45.049Z,99303.41
2022-12-14T03:17:19.897Z,99299.44
2022-12-14T03:20:01.600Z,99294.63
2022-12-14T03:22:59.644Z,99302.00
2022-12-14T03:25:43.280Z,99298.47
2022-12-14T03:28:45.731Z,99300.28
2022-12-14T03:31:32.120Z,99298.63
2022-12-14T03:34:02.547Z,99285.53
2022-12-14T03:37:19.423Z,99282.00
2022-12-14T03:39:47.478Z,99281.16
2022-12-14T03:42:35.497Z,99278.69
2022-12-14T03:45:16.100Z,99283.06
2022-12-14T03:48:21.452Z,99273.53
2022-12-14T03:51:22.809Z,99277.59
2022-12-14T03:54:20.291Z,99268.31
2022-12-14T03:56:56.018Z,99267.34
2022-12-14T03:59:27.326Z,99264.03
2022-12-14T04:02:28.561Z,99266.69
2022-12-14T04:05:08.058Z,99254.41
2022-12-14T04:08:12.365Z,99257.97
2022-12-14T04:11:26.535Z,99245.91
2022-12-14T04:14:39.177Z,99241.53
2022-12-14T04:17:32.253Z,99237.63
2022-12-14T04:20:19.726Z,99228.50
2022-12-14T04:23:08.410Z,99228.41
2022-12-14T04:25:59.679Z,99219.66
2022-12-14T04:28:52.428Z,99223.28
2022-12-14T04:31:23.486Z,99236.44
2022-12-14T04:33:54.781Z,99232.91
2022-12-14T04:36:30.972Z,99237.28
2022-12-14T04:39:07.412Z,99238.28
2022-12-14T04:41:43.884Z,99248.47
2022-12-14T04:44:24.012Z,99236.69
2022-12-14T04:46:53.652Z,99224.59
2022-12-14T04:49:28.978Z,99235.78
2022-12-14T04:52:05.596Z,99247.38
2022-12-14T04:54:47.880Z,99243.56
2022-12-14T04:57:42.326Z,99227.75
2022-12-14T05:00:10.386Z,99221.13
2022-12-14T05:03:13.646Z,99231.06
2022-12-14T05:06:15.052Z,99214.00
2022-12-14T05:09:06.266Z,99218.47
2022-12-14T05:12:15.097Z,99220.78
2022-12-14T05:14:55.666Z,99221.31
2022-12-14T05:17:22.456Z,99220.63
2022-12-14T05:19:50.879Z,99219.81
2022-12-14T05:22:18.353Z,99218.09
2022-12-14T05:24:45.177Z,99228.88
2022-12-14T05:27:12.326Z,99226.72
2022-12-14T05:29:39.156Z,99213.56
2022-12-14T05:32:05.971Z,99211.34
2022-12-14T05:34:32.806Z,99217.22
2022-12-14T05:36:59.611Z,99211.66
2022-12-14T05:39:26.408Z,99211.66
2022-12-14T05:41:53.474Z,99213.41
2022-12-14T05:44:20.545Z,99207.84
2022-12-14T05:46:47.800Z,99194.69
2022-12-14T05:49:14.708Z,99189.66
2022-12-14T05:51:42.053Z,99203.63
2022-12-14T05:54:08.965Z,99202.91
2022-12-14T05:56:35.906Z,99205.03
2022-12-14T05:59:02.875Z,99197.06
2022-12-14T06:01:29.769Z,99188.47
2022-12-14T06:03:56.730Z,99176.56
2022-12-14T06:06:23.633Z,99177.06
2022-12-14T06:08:50.543Z,99180.13
2022-12-14T06:11:22.305Z,99177.47
2022-12-14T06:13:49.757Z,99167.13
2022-12-14T06:16:24.238Z,99159.81
2022-12-14T06:18:58.072Z,99158.44
2022-12-14T06:21:31.195Z,99144.78
2022-12-14T06:23:59.323Z,99140.91
2022-12-14T06:26:27.676Z,99142.66
2022-12-14T06:28:56.360Z,99138.47
2022-12-14T06:31:29.695Z,99135.00
2022-12-14T06:33:59.900Z,99142.00
2022-12-14T06:36:34.299Z,99129.44
2022-12-14T06:39:06.128Z,99115.91
2022-12-14T06:41:33.318Z,99125.19
2022-12-14T06:44:10.529Z,99125.53
2022-12-14T06:46:38.058Z,99116.63
2022-12-14T06:49:06.403Z,99111.19
2022-12-14T06:51:39.308Z,99100.91
2022-12-14T06:54:06.853Z,99086.88
2022-12-14T06:56:33.860Z,99091.59
2022-12-14T06:59:00.752Z,99087.91
2022-12-14T07:01:28.614Z,99089.59
2022-12-14T07:03:59.122Z,99104.88
2022-12-14T07:06:31.501Z,99108.41
2022-12-14T07:09:00.245Z,99098.13
2022-12-14T07:11:28.811Z,99105.66
2022-12-14T07:13:56.968Z,99100.78
2022-12-14T07:16:26.796Z,99090.19
2022-12-14T07:18:56.883Z,99085.22
2022-12-14T07:21:24.671Z,99094.44
2022-12-14T07:23:52.374Z,99095.16
2022-12-14T07:26:24.872Z,99096.53
2022-12-14T07:28:52.817Z,99109.13
2022-12-14T07:31:26.252Z,99095.41
2022-12-14T07:33:55.445Z,99092.28
2022-12-14T07:36:24.986Z,99080.28
2022-12-14T07:38:52.542Z,99071.69
2022-12-14T07:41:23.502Z,99076.28
2022-12-14T07:43:52.150Z,99080.38
2022-12-14T07:46:22.804Z,99100.47
2022-12-14T07:48:52.911Z,99097.47
2022-12-14T07:51:23.445Z,99097.56
2022-12-14T07:53:51.474Z,99109.56
2022-12-14T07:56:21.658Z,99098.97
2022-12-14T07:58:49.343Z,99094.25
2022-12-14T08:01:25.440Z,99087.72
2022-12-14T08:03:59.287Z,99085.81
2022-12-14T08:06:29.654Z,99072.78
2022-12-14T08:08:57.596Z,99068.19
2022-12-14T08:11:25.387Z,99078.44
2022-12-14T08:14:08.291Z,99077.38
2022-12-14T08:16:35.403Z,99086.22
2022-12-14T08:19:02.445Z,99096.59
2022-12-14T08:21:30.006Z,99098.44
2022-12-14T08:23:57.681Z,99096.47
2022-12-14T08:26:30.132Z,99104.66
2022-12-14T08:29:00.605Z,99103.25
2022-12-14T08:31:30.352Z,99103.81
2022-12-14T08:33:59.968Z,99107.06
2022-12-14T08:36:30.313Z,99110.19
2022-12-14T08:39:04.071Z,99101.25
2022-12-14T08:41:31.389Z,99112.56
2022-12-14T08:44:00.731Z,99105.88
2022-12-14T08:46:30.249Z,99107.91
2022-12-14T08:48:58.032Z,99108.63
2022-12-14T08:51:27.321Z,99109.03
2022-12-14T08:53:55.429Z,99103.09
2022-12-14T08:56:26.740Z,99089.84
2022-12-14T08:58:53.999Z,99074.03
2022-12-14T09:01:32.680Z,99079.84
2022-12-14T09:04:06.364Z,99081.50
2022-12-14T09:06:37.155Z,99083.69
2022-12-14T09:09:09.156Z,99082.38
2022-12-14T09:11:40.450Z,99089.47
2022-12-14T09:14:07.282Z,99087.97
2022-12-14T09:16:34.295Z,99094.38
2022-12-14T09:19:01.167Z,99096.19
2022-12-14T09:21:28.076Z,99100.41
2022-12-14T09:23:59.309Z,99094.53
2022-12-14T09:26:27.333Z,99097.50
2022-12-14T09:28:56.469Z,99092.56
2022-12-14T09:31:25.569Z,99092.97
2022-12-14T09:33:52.556Z,99098.06
2022-12-14T09:36:23.368Z,99089.41
2022-12-14T09:38:52.538Z,99084.63
2022-12-14T09:41:34.557Z,99076.84
2022-12-14T09:44:37.182Z,99074.22
2022-12-14T09:47:30.913Z,99086.38
2022-12-14T09:50:20.095Z,99084.09
2022-12-14T09:52:56.825Z,99084.72
2022-12-14T09:55:45.029Z,99095.22
2022-12-14T09:58:20.590Z,99089.84
2022-12-14T10:01:22.524Z,99086.56
2022-12-14T10:04:14.144Z,99086.88
2022-12-14T10:07:07.622Z,99083.66
2022-12-14T10:09:57.004Z,99078.88
2022-12-14T10:12:45.185Z,99075.34
2022-12-14T10:15:23.920Z,99083.28
2022-12-14T10:18:49.839Z,99074.06
2022-12-14T10:21:16.476Z,99078.16
2022-12-14T10:23:55.175Z,99084.22
2022-12-14T10:26:27.909Z,99092.91
2022-12-14T10:29:06.584Z,99087.19
2022-12-14T10:31:46.877Z,99086.16
2022-12-14T10:34:22.786Z,99085.06
2022-12-14T10:36:59.459Z,99081.50
2022-12-14T10:39:39.988Z,99078.09
2022-12-14T10:42:57.357Z,99069.97
2022-12-14T10:45:48.204Z,99077.28
2022-12-14T10:48:34.881Z,99084.47
2022-12-14T10:51:42.557Z,99078.31
2022-12-14T10:54:39.269Z,99072.59
2022-12-14T10:57:06.183Z,99077.72
2022-12-14T10:59:43.734Z,99085.06
2022-12-14T11:02:29.042Z,99085.22
2022-12-14T11:04:59.915Z,99081.81
2022-12-14T11:07:38.898Z,99089.63
2022-12-14T11:10:16.435Z,99084.31
2022-12-14T11:13:17.854Z,99078.38
2022-12-14T11:15:46.454Z,99079.50
2022-12-14T11:18:16.085Z,99085.38
2022-12-14T11:21:02.771Z,99085.56
2022-12-14T11:23:39.760Z,99079.88
2022-12-14T11:26:40.891Z,99074.78
2022-12-14T11:29:22.673Z,99066.16
2022-12-14T11:31:53.798Z,99055.72
2022-12-14T11:34:37.704Z,99076.06
2022-12-14T11:37:30.852Z,99075.16
2022-12-14T11:40:04.953Z,99071.50
2022-12-14T11:42:32.532Z,99072.28
2022-12-14T11:45:29.623Z,99059.81
2022-12-14T11:48:14.725Z,99057.66
2022-12-14T11:50:46.994Z,99057.44
2022-12-14T11:53:17.319Z,99045.97
2022-12-14T11:56:00.183Z,99048.44
2022-12-14T11:58:39.368Z,99052.22
2022-12-14T12:01:13.607Z,99060.78
2022-12-14T12:03:51.328Z,99065.13
2022-12-14T12:06:30.268Z,99060.75
2022-12-14T12:09:00.189Z,99054.88
2022-12-14T12:11:31.199Z,99042.78
2022-12-14T12:14:33.990Z,99045.34
2022-12-14T12:17:00.895Z,99047.19
2022-12-14T12:19:38.430Z,99048.84
2022-12-14T12:22:09.437Z,99052.19
2022-12-14T12:25:24.911Z,99050.59
2022-12-14T12:27:57.518Z,99048.31
2022-12-14T12:30:28.855Z,99054.44
2022-12-14T12:33:12.069Z,99052.34
2022-12-14T12:35:51.766Z,99050.94
2022-12-14T12:38:36.596Z,99049.75
2022-12-14T12:41:25.964Z,99060.50
2022-12-14T12:44:01.638Z,99055.19
2022-12-14T12:46:53.573Z,99065.28
2022-12-14T12:49:26.747Z,99061.03
2022-12-14T12:52:03.360Z,99063.81
2022-12-14T12:54:40.902Z,99063.81
2022-12-14T12:57:11.452Z,99073.53
2022-12-14T12:59:49.138Z,99073.44
2022-12-14T13:02:36.811Z,99076.31
2022-12-14T13:05:44.458Z,99078.97
2022-12-14T13:08:06.937Z,99077.09
2022-12-14T13:11:17.206Z,99075.63
2022-12-14T13:13:35.562Z,99084.59
2022-12-14T13:16:24.657Z,99090.56
2022-12-14T13:21:51.455Z,99089.19
2022-12-14T13:24:21.489Z,99094.53
2022-12-14T13:27:16.912Z,99094.97
2022-12-14T13:30:20.984Z,99099.75
2022-12-14T13:33:19.453Z,99099.25
2022-12-14T13:36:30.473Z,99105.03
2022-12-14T13:39:57.632Z,99105.88
2022-12-14T13:42:44.831Z,99115.06
2022-12-14T13:45:27.631Z,99112.59
2022-12-14T13:47:57.703Z,99120.09
2022-12-14T13:50:56.069Z,99131.88
2022-12-14T13:53:54.788Z,99123.75
2022-12-14T13:56:32.680Z,99134.84
2022-12-14T13:59:03.773Z,99138.09
2022-12-14T14:01:48.872Z,99137.09
2022-12-14T14:04:27.611Z,99137.88
2022-12-14T14:07:16.760Z,99138.69
2022-12-14T14:09:50.899Z,99143.34
2022-12-14T14:12:23.741Z,99144.81
2022-12-14T14:15:24.296Z,99139.84
2022-12-14T14:17:54.870Z,99136.53
2022-12-14T14:21:18.456Z,99144.13
2022-12-14T14:24:01.770Z,99147.63
2022-12-14T14:26:34.621Z,99148.47
2022-12-14T14:29:30.194Z,99150.59
2022-12-14T14:32:06.685Z,99160.22
2022-12-14T14:34:42.529Z,99162.34
2022-12-14T14:37:21.119Z,99161.03
2022-12-14T14:40:23.775Z,99154.81
2022-12-14T14:43:20.718Z,99165.00
2022-12-14T14:45:54.303Z,99175.34
2022-12-14T14:48:36.031Z,99184.28
2022-12-14T14:51:11.895Z,99174.63
2022-12-14T14:53:40.391Z,99184.47
2022-12-14T14:56:39.996Z,99176.50
2022-12-14T14:59:19.179Z,99185.28
2022-12-14T15:02:00.519Z,99181.78
2022-12-14T15:04:36.484Z,99174.94
2022-12-14T15:07:07.568Z,99192.53
2022-12-14T15:09:51.446Z,99191.16
2022-12-14T15:12:38.518Z,99200.00
2022-12-14T15:15:20.021Z,99200.47
2022-12-14T15:17:47.184Z,99215.06
2022-12-14T15:20:23.100Z,99214.00
2022-12-14T15:22:52.479Z,99217.13
2022-12-14T15:25:27.745Z,99220.28
2022-12-14T15:27:57.940Z,99231.72
2022-12-14T15:30:29.179Z,99235.34
2022-12-14T15:33:06.598Z,99240.91
2022-12-14T15:35:38.232Z,99231.91
2022-12-14T15:38:08.039Z,99238.34
2022-12-14T15:40:35.483Z,99234.47
2022-12-14T15:43:20.770Z,99236.09
2022-12-14T15:45:53.749Z,99247.03
2022-12-14T15:48:35.094Z,99239.16
2022-12-14T15:51:06.480Z,99237.78
2022-12-14T15:53:39.618Z,99239.00
2022-12-14T15:56:33.947Z,99234.84
2022-12-14T15:59:12.134Z,99255.69
2022-12-14T16:01:53.933Z,99257.09
2022-12-14T16:04:25.743Z,99255.97
2022-12-14T16:07:09.086Z,99261.75
2022-12-14T16:09:50.061Z,99268.31
2022-12-14T16:12:45.919Z,99269.88
2022-12-14T16:15:29.019Z,99282.94
2022-12-14T16:18:02.055Z,99289.75
2022-12-14T16:20:34.085Z,99292.31
2022-12-14T16:23:22.103Z,99292.91
2022-12-14T16:25:58.998Z,99296.69
2022-12-14T16:28:37.685Z,99303.03
2022-12-14T16:31:21.508Z,99305.38
2022-12-14T16:34:15.433Z,99309.66
2022-12-14T16:36:48.224Z,99317.69
2022-12-14T16:39:23.914Z,99312.41
2022-12-14T16:42:04.420Z,99320.44
2022-12-14T16:44:31.465Z,99324.34
2022-12-14T16:47:01.241Z,99334.75
2022-12-14T16:49:42.344Z,99340.78
2022-12-14T16:52:32.688Z,99340.63
2022-12-14T16:55:16.994Z,99350.50
2022-12-14T16:57:55.643Z,99349.09
2022-12-14T17:00:29.923Z,99347.28
2022-12-14T17:03:03.114Z,99354.66
2022-12-14T17:05:36.002Z,99351.50
2022-12-14T17:08:03.343Z,99355.06
2022-12-14T17:10:33.324Z,99364.63
2022-12-14T17:13:02.719Z,99366.97
2022-12-14T17:15:34.907Z,99363.00
2022-12-14T17:18:04.752Z,99363.56
2022-12-14T17:20:36.630Z,99371.97
2022-12-14T17:23:08.402Z,99376.91
2022-12-14T17:25:37.047Z,99377.53
2022-12-14T17:28:04.454Z,99369.63
2022-12-14T17:30:31.478Z,99369.94
2022-12-14T17:32:58.825Z,99383.63
2022-12-14T17:35:29.809Z,99373.53
2022-12-14T17:37:57.128Z,99373.47
2022-12-14T17:40:24.268Z,99371.50
2022-12-14T17:42:57.864Z,99381.91
2022-12-14T17:45:29.853Z,99372.78
2022-12-14T17:47:57.644Z,99381.91
2022-12-14T17:50:27.530Z,99374.28
2022-12-14T17:52:54.528Z,99375.94
2022-12-14T17:55:25.687Z,99370.81
2022-12-14T17:57:53.538Z,99378.94
2022-12-14T18:00:44.456Z,99382.00
2022-12-14T18:03:13.917Z,99378.34
2022-12-14T18:05:48.448Z,99386.91
2022-12-14T18:08:26.601Z,99386.78
2022-12-14T18:11:11.861Z,99384.00
2022-12-14T18:13:41.483Z,99383.03
2022-12-14T18:16:13.745Z,99379.34
2022-12-14T18:18:41.250Z,99372.47
2022-12-14T18:21:17.281Z,99382.50
2022-12-14T18:23:45.243Z,99381.75
2022-12-14T18:26:15.640Z,99388.22
2022-12-14T18:28:42.536Z,99388.63
2022-12-14T18:31:26.439Z,99392.56
2022-12-14T18:33:53.764Z,99401.97
2022-12-14T18:36:21.588Z,99395.16
2022-12-14T18:38:49.969Z,99403.47
2022-12-14T18:41:23.882Z,99394.59
2022-12-14T18:43:51.757Z,99412.44
2022-12-14T18:46:18.844Z,99398.75
2022-12-14T18:48:46.169Z,99402.16
2022-12-14T18:51:26.661Z,99401.53
2022-12-14T18:53:55.797Z,99408.25
2022-12-14T18:56:23.949Z,99414.72
2022-12-14T18:58:51.597Z,99420.31
2022-12-14T19:01:22.888Z,99425.31
2022-12-14T19:03:50.651Z,99432.16
2022-12-14T19:09:08.165Z,99431.31
2022-12-14T19:11:38.941Z,99434.72
2022-12-14T19:14:05.946Z,99435.25
2022-12-14T19:16:32.861Z,99441.56
2022-12-14T19:19:00.699Z,99445.84
2022-12-14T19:21:29.636Z,99452.56
2022-12-14T19:23:57.274Z,99451.19
2022-12-14T19:26:24.236Z,99463.41
2022-12-14T19:28:51.117Z,99461.50
2022-12-14T19:31:18.074Z,99460.75
2022-12-14T19:33:44.958Z,99466.84
2022-12-14T19:36:12.035Z,99459.88
2022-12-14T19:38:39.020Z,99466.94
2022-12-14T19:41:10.337Z,99475.56
2022-12-14T19:43:37.358Z,99469.13
2022-12-14T19:46:09.956Z,99468.25
2022-12-14T19:48:38.084Z,99462.09
2022-12-14T19:51:10.327Z,99453.75
2022-12-14T19:53:39.761Z,99460.84
2022-12-14T19:56:07.034Z,99452.53
2022-12-14T19:58:34.679Z,99459.38
2022-12-14T20:01:01.929Z,99461.13
2022-12-14T20:03:29.415Z,99469.50
2022-12-14T20:05:59.201Z,99467.81
2022-12-14T20:08:28.834Z,99462.91
2022-12-14T20:10:56.853Z,99466.72
2022-12-14T20:13:26.315Z,99469.13
2022-12-14T20:16:01.062Z,99469.25
2022-12-14T20:18:29.382Z,99471.41
2022-12-14T20:21:08.827Z,99469.47
2022-12-14T20:23:37.822Z,99476.94
2022-12-14T20:26:10.063Z,99481.50
2022-12-14T20:28:37.166Z,99483.06
2022-12-14T20:31:09.698Z,99477.09
2022-12-14T20:33:37.795Z,99480.16
2022-12-14T20:36:06.077Z,99484.22
2022-12-14T20:38:32.981Z,99481.28
2022-12-14T20:41:11.654Z,99479.56
2022-12-14T20:43:42.165Z,99491.88
2022-12-14T20:46:33.198Z,99495.06
2022-12-14T20:49:06.930Z,99489.34
2022-12-14T20:51:36.769Z,99487.16
2022-12-14T20:54:07.324Z,99494.72
2022-12-14T20:56:36.241Z,99500.31
2022-12-14T20:59:04.078Z,99491.13
2022-12-14T21:01:31.492Z,99485.19
2022-12-14T21:04:01.090Z,99487.19
2022-12-14T21:06:28.521Z,99488.00
2022-12-14T21:09:01.879Z,99503.47
2022-12-14T21:11:47.937Z,99505.75
2022-12-14T21:14:15.252Z,99505.56
2022-12-14T21:16:42.911Z,99511.34
2022-12-14T21:19:12.375Z,99516.25
2022-12-14T21:21:40.969Z,99519.41
2022-12-14T21:24:17.668Z,99526.13
2022-12-14T21:26:58.322Z,99533.41
2022-12-14T21:29:25.318Z,99525.44
2022-12-14T21:31:52.170Z,99522.53
2022-12-14T21:34:21.587Z,99519.72
2022-12-14T21:36:49.222Z,99517.53
2022-12-14T21:39:18.736Z,99517.88
2022-12-14T21:42:08.003Z,99519.66
2022-12-14T21:44:35.031Z,99522.72
2022-12-14T21:47:03.819Z,99519.41
2022-12-14T21:49:30.740Z,99521.03
2022-12-14T21:51:57.677Z,99525.13
2022-12-14T21:54:26.014Z,99535.13
2022-12-14T21:57:11.324Z,99522.25
2022-12-14T21:59:41.466Z,99521.41
2022-12-14T22:02:23.789Z,99515.03
2022-12-14T22:04:56.064Z,99516.84
2022-12-14T22:07:26.277Z,99515.59
2022-12-14T22:09:53.178Z,99514.63
2022-12-14T22:12:19.979Z,99529.84
2022-12-14T22:14:48.403Z,99539.41
2022-12-14T22:17:15.508Z,99542.53
2022-12-14T22:19:42.600Z,99537.91
2022-12-14T22:22:15.432Z,99541.50
2022-12-14T22:24:42.918Z,99546.63
2022-12-14T22:27:13.446Z,99552.38
2022-12-14T22:29:40.655Z,99554.41
2022-12-14T22:32:08.222Z,99548.03
2022-12-14T22:34:35.237Z,99547.97
2022-12-14T22:37:02.203Z,99547.25
2022-12-14T22:39:29.149Z,99542.75
2022-12-14T22:41:56.504Z,99550.06
2022-12-14T22:44:23.343Z,99551.00
2022-12-14T22:46:50.194Z,99547.47
2022-12-14T22:49:19.353Z,99542.59
2022-12-14T22:51:46.565Z,99551.75
2022-12-14T22:54:39.815Z,99552.03
2022-12-14T22:57:15.383Z,99543.31
2022-12-14T23:00:05.282Z,99545.78
2022-12-14T23:02:32.199Z,99538.59
2022-12-14T23:04:59.384Z,99532.56
2022-12-14T23:07:26.177Z,99527.44
2022-12-14T23:10:11.394Z,99521.56
2022-12-14T23:12:56.796Z,99536.84
2022-12-14T23:15:42.276Z,99536.94
2022-12-14T23:18:27.895Z,99532.03
2022-12-14T23:21:13.671Z,99531.75
2022-12-14T23:24:02.698Z,99545.63
2022-12-14T23:26:49.242Z,99559.94
2022-12-14T23:29:34.746Z,99579.34
2022-12-14T23:32:20.187Z,99581.38
2022-12-14T23:35:05.466Z,99576.88
2022-12-14T23:37:50.962Z,99577.97
2022-12-14T23:40:36.380Z,99569.19
2022-12-14T23:43:33.963Z,99586.22
2022-12-14T23:46:21.685Z,99586.97
2022-12-14T23:49:12.063Z,99572.91
2022-12-14T23:52:00.906Z,99562.56
2022-12-14T23:54:46.342Z,99562.44
2022-12-14T23:57:31.925Z,99564.94
